Time;durP1;ratioP1;P1;durP2;ratioP2;P2;SDS_P1;SDS_P2;PMS_P1;PMS_P2;Temp;Humidity;BMP_temperature;BMP_pressure;BME280_temperature;BME280_humidity;BME280_pressure;Samples;Min_cycle;Max_cycle;Signal;HPM_P1;HPM_P2
2022/03/10 00:01:13;;;;;;;0.40;0.40;;;;;;;;;;1809571;78;26221;-39
2022/03/10 00:03:40;;;;;;;0.35;0.35;;;;;;;;;;1806787;78;26291;-39
2022/03/10 00:06:08;;;;;;;0.40;0.40;;;;;;;;;;1815646;78;26659;-39
2022/03/10 00:08:35;;;;;;;0.45;0.45;;;;;;;;;;1808404;78;26287;-39
2022/03/10 00:11:02;;;;;;;1.10;0.40;;;;;;;;;;1804845;78;26278;-38
2022/03/10 00:13:31;;;;;;;0.65;0.40;;;;;;;;;;1812383;78;26263;-41
2022/03/10 00:15:59;;;;;;;0.40;0.40;;;;;;;;;;1806092;78;26699;-41
2022/03/10 00:18:26;;;;;;;0.37;0.37;;;;;;;;;;1804919;78;26299;-41
2022/03/10 00:20:54;;;;;;;0.40;0.40;;;;;;;;;;1811880;78;26252;-41
2022/03/10 00:23:21;;;;;;;0.50;0.50;;;;;;;;;;1813513;78;26284;-40
2022/03/10 00:25:48;;;;;;;0.40;0.40;;;;;;;;;;1812431;78;26281;-39
2022/03/10 00:28:18;;;;;;;0.30;0.30;;;;;;;;;;1816379;78;26750;-38
2022/03/10 00:30:45;;;;;;;0.40;0.40;;;;;;;;;;1804512;78;26317;-39
2022/03/10 00:33:12;;;;;;;0.40;0.40;;;;;;;;;;1814585;78;26822;-39
2022/03/10 00:35:39;;;;;;;0.40;0.40;;;;;;;;;;1811102;78;26637;-38
2022/03/10 00:38:06;;;;;;;0.40;0.40;;;;;;;;;;1812662;78;26261;-41
2022/03/10 00:40:34;;;;;;;0.50;0.50;;;;;;;;;;1807813;78;26323;-39
2022/03/10 00:43:01;;;;;;;0.42;0.42;;;;;;;;;;1812682;78;26290;-38
2022/03/10 00:45:28;;;;;;;0.40;0.40;;;;;;;;;;1816517;77;26279;-41
2022/03/10 00:47:55;;;;;;;0.40;0.40;;;;;;;;;;1817548;78;26212;-39
2022/03/10 00:50:26;;;;;;;0.60;0.50;;;;;;;;;;1808273;78;26275;-39
2022/03/10 00:52:53;;;;;;;0.40;0.40;;;;;;;;;;1812670;78;26285;-40
2022/03/10 00:55:21;;;;;;;0.35;0.35;;;;;;;;;;1834873;77;26772;-40
2022/03/10 00:57:50;;;;;;;0.47;0.47;;;;;;;;;;1836971;77;26294;-40
2022/03/10 01:00:19;;;;;;;0.37;0.37;;;;;;;;;;1831657;77;26420;-43
2022/03/10 01:02:46;;;;;;;0.40;0.40;;;;;;;;;;1834049;76;26741;-40
2022/03/10 01:05:14;;;;;;;0.50;0.50;;;;;;;;;;1838872;77;26212;-41
2022/03/10 01:07:41;;;;;;;0.37;0.37;;;;;;;;;;1843004;77;26363;-39
2022/03/10 01:10:09;;;;;;;0.42;0.42;;;;;;;;;;1837021;77;26353;-40
2022/03/10 01:12:36;;;;;;;0.50;0.50;;;;;;;;;;1832197;77;26700;-39
2022/03/10 01:15:04;;;;;;;0.50;0.50;;;;;;;;;;1838734;77;26256;-43
2022/03/10 01:17:31;;;;;;;0.40;0.40;;;;;;;;;;1847174;76;26385;-39
2022/03/10 01:19:59;;;;;;;0.50;0.50;;;;;;;;;;1835490;77;26757;-40
2022/03/10 01:22:26;;;;;;;0.75;0.30;;;;;;;;;;1836951;77;26608;-42
2022/03/10 01:24:53;;;;;;;0.37;0.37;;;;;;;;;;1842866;77;26283;-39
2022/03/10 01:27:20;;;;;;;0.40;0.40;;;;;;;;;;1839000;77;26332;-44
2022/03/10 01:29:48;;;;;;;0.30;0.30;;;;;;;;;;1836676;77;26776;-39
2022/03/10 01:32:15;;;;;;;0.30;0.30;;;;;;;;;;1840262;77;26204;-41
2022/03/10 01:34:43;;;;;;;0.50;0.50;;;;;;;;;;1835796;77;26427;-40
2022/03/10 01:37:10;;;;;;;0.30;0.30;;;;;;;;;;1836308;77;26933;-39
2022/03/10 01:39:37;;;;;;;0.30;0.30;;;;;;;;;;1838789;77;26651;-40
2022/03/10 01:42:06;;;;;;;0.40;0.40;;;;;;;;;;1841123;77;26321;-44
2022/03/10 01:44:34;;;;;;;0.30;0.30;;;;;;;;;;1832946;77;26336;-39
2022/03/10 01:47:02;;;;;;;0.30;0.30;;;;;;;;;;1847919;77;26682;-39
2022/03/10 01:49:29;;;;;;;0.40;0.40;;;;;;;;;;1826181;77;26334;-41
2022/03/10 01:51:57;;;;;;;0.30;0.30;;;;;;;;;;1838933;77;26320;-42
2022/03/10 01:54:24;;;;;;;0.28;0.28;;;;;;;;;;1840283;77;26347;-40
2022/03/10 01:56:52;;;;;;;0.50;0.50;;;;;;;;;;1857459;77;26335;-42
2022/03/10 01:59:20;;;;;;;0.40;0.40;;;;;;;;;;1859067;76;27456;-39
2022/03/10 02:01:47;;;;;;;0.47;0.47;;;;;;;;;;1858524;77;26268;-39
2022/03/10 02:04:15;;;;;;;0.40;0.40;;;;;;;;;;1858750;77;26715;-42
2022/03/10 02:06:43;;;;;;;0.40;0.40;;;;;;;;;;1858551;76;26288;-41
2022/03/10 02:11:56;;;;;;;1.27;0.50;;;;;;;;;;1858697;77;26381;-40
2022/03/10 02:17:22;;;;;;;0.40;0.40;;;;;;;;;;1828120;78;26377;-40
2022/03/10 02:19:51;;;;;;;0.40;0.35;;;;;;;;;;1828728;78;26601;-41
2022/03/10 02:22:20;;;;;;;0.85;0.33;;;;;;;;;;1828213;78;26307;-39
2022/03/10 02:24:48;;;;;;;0.40;0.40;;;;;;;;;;1828743;78;26368;-42
2022/03/10 02:27:23;;;;;;;0.30;0.30;;;;;;;;;;1834031;77;26360;-44
2022/03/10 02:29:54;;;;;;;0.40;0.40;;;;;;;;;;1829059;77;27201;-40
2022/03/10 02:32:22;;;;;;;0.40;0.40;;;;;;;;;;1832044;77;26285;-40
2022/03/10 02:34:50;;;;;;;0.50;0.30;;;;;;;;;;1838629;77;26237;-42
2022/03/10 02:37:17;;;;;;;0.33;0.33;;;;;;;;;;1828912;78;26310;-40
2022/03/10 02:39:45;;;;;;;0.35;0.35;;;;;;;;;;1828860;78;26368;-41
2022/03/10 02:42:15;;;;;;;0.95;0.40;;;;;;;;;;1830082;77;26332;-42
2022/03/10 02:44:44;;;;;;;2.20;0.20;;;;;;;;;;1841762;77;26278;-40
2022/03/10 02:47:11;;;;;;;0.33;0.33;;;;;;;;;;1828620;78;26274;-40
2022/03/10 02:49:39;;;;;;;1.12;0.20;;;;;;;;;;1827682;77;26266;-42
2022/03/10 02:52:07;;;;;;;0.35;0.30;;;;;;;;;;1803269;77;26748;-43
2022/03/10 02:54:35;;;;;;;0.42;0.40;;;;;;;;;;1804354;77;26269;-42
2022/03/10 02:57:02;;;;;;;0.62;0.50;;;;;;;;;;1779961;78;27416;-40
2022/03/10 02:59:29;;;;;;;0.50;0.50;;;;;;;;;;1793433;78;26281;-43
2022/03/10 03:01:58;;;;;;;0.47;0.28;;;;;;;;;;1805378;78;26272;-40
2022/03/10 03:04:26;;;;;;;0.30;0.30;;;;;;;;;;1793591;78;26333;-41
2022/03/10 03:06:54;;;;;;;0.37;0.37;;;;;;;;;;1808701;78;26249;-39
2022/03/10 03:09:21;;;;;;;0.40;0.40;;;;;;;;;;1784188;78;26326;-42
2022/03/10 03:11:49;;;;;;;0.68;0.30;;;;;;;;;;1799566;78;26264;-40
2022/03/10 03:14:16;;;;;;;0.30;0.30;;;;;;;;;;1805323;78;26247;-42
2022/03/10 03:16:43;;;;;;;0.37;0.30;;;;;;;;;;1787994;78;26551;-40
2022/03/10 03:19:10;;;;;;;0.98;0.30;;;;;;;;;;1783367;78;26343;-41
2022/03/10 03:21:38;;;;;;;0.30;0.30;;;;;;;;;;1795402;78;26227;-40
2022/03/10 03:24:05;;;;;;;0.45;0.45;;;;;;;;;;1805956;78;26257;-40
2022/03/10 03:26:32;;;;;;;0.30;0.30;;;;;;;;;;1838707;78;26265;-43
2022/03/10 03:29:00;;;;;;;0.40;0.40;;;;;;;;;;1838902;78;26217;-40
2022/03/10 03:31:27;;;;;;;0.42;0.42;;;;;;;;;;1823447;78;26294;-39
2022/03/10 03:33:54;;;;;;;0.20;0.20;;;;;;;;;;1809435;78;26297;-38
2022/03/10 03:36:21;;;;;;;0.42;0.30;;;;;;;;;;1819068;77;26224;-39
2022/03/10 03:38:50;;;;;;;1.40;0.55;;;;;;;;;;1808478;79;26378;-38
2022/03/10 03:41:17;;;;;;;0.30;0.30;;;;;;;;;;1808575;78;26380;-40
2022/03/10 03:43:45;;;;;;;0.40;0.20;;;;;;;;;;1808458;79;26307;-42
2022/03/10 03:46:12;;;;;;;0.90;0.40;;;;;;;;;;1808839;79;26750;-43
2022/03/10 03:48:39;;;;;;;0.40;0.40;;;;;;;;;;1820642;77;26738;-40
2022/03/10 03:51:07;;;;;;;0.40;0.40;;;;;;;;;;1819077;77;27394;-39
2022/03/10 03:53:34;;;;;;;0.40;0.40;;;;;;;;;;1809300;78;26280;-41
2022/03/10 03:56:01;;;;;;;0.50;0.50;;;;;;;;;;1826027;77;26369;-40
2022/03/10 03:58:28;;;;;;;0.20;0.20;;;;;;;;;;1833815;77;26205;-40
2022/03/10 04:00:56;;;;;;;0.30;0.30;;;;;;;;;;1840755;77;26278;-40
2022/03/10 04:03:23;;;;;;;0.28;0.28;;;;;;;;;;1806959;77;26265;-39
2022/03/10 04:05:50;;;;;;;0.30;0.30;;;;;;;;;;1804631;79;26759;-38
2022/03/10 04:08:21;;;;;;;1.25;0.40;;;;;;;;;;1806922;77;26859;-39
2022/03/10 04:10:47;;;;;;;0.82;0.35;;;;;;;;;;1804254;77;26388;-38
2022/03/10 04:13:14;;;;;;;0.20;0.20;;;;;;;;;;1804581;78;26371;-38
2022/03/10 04:15:41;;;;;;;0.30;0.30;;;;;;;;;;1831944;78;26306;-38
2022/03/10 04:18:09;;;;;;;1.65;0.57;;;;;;;;;;1834996;78;26286;-38
2022/03/10 04:20:37;;;;;;;0.33;0.33;;;;;;;;;;1834899;78;26293;-39
2022/03/10 04:23:04;;;;;;;0.40;0.40;;;;;;;;;;1834950;78;26349;-38
2022/03/10 04:25:31;;;;;;;0.75;0.40;;;;;;;;;;1834878;78;26282;-40
2022/03/10 04:27:59;;;;;;;0.30;0.30;;;;;;;;;;1835016;77;26713;-40
2022/03/10 04:30:27;;;;;;;0.30;0.30;;;;;;;;;;1832492;77;26430;-40
2022/03/10 04:32:54;;;;;;;0.47;0.20;;;;;;;;;;1834261;78;26293;-39
2022/03/10 04:35:21;;;;;;;0.30;0.30;;;;;;;;;;1833589;78;26207;-39
2022/03/10 04:37:50;;;;;;;0.20;0.20;;;;;;;;;;1833097;78;26960;-38
2022/03/10 04:40:17;;;;;;;0.75;0.20;;;;;;;;;;1833157;78;26275;-41
2022/03/10 04:42:45;;;;;;;1.35;0.82;;;;;;;;;;1832848;78;27501;-40
2022/03/10 04:45:12;;;;;;;0.25;0.25;;;;;;;;;;1839514;77;26280;-41
2022/03/10 04:47:41;;;;;;;0.90;0.40;;;;;;;;;;1865771;77;26243;-40
2022/03/10 04:50:11;;;;;;;1.22;0.40;;;;;;;;;;1865797;77;26310;-39
2022/03/10 04:52:38;;;;;;;1.65;0.30;;;;;;;;;;1864560;77;26271;-45
2022/03/10 04:55:06;;;;;;;0.30;0.30;;;;;;;;;;1864642;77;26262;-39
2022/03/10 04:57:34;;;;;;;0.25;0.25;;;;;;;;;;1854151;77;26288;-43
2022/03/10 05:00:05;;;;;;;0.33;0.25;;;;;;;;;;1859478;76;26615;-41
2022/03/10 05:02:30;;;;;;;0.90;0.30;;;;;;;;;;1864871;77;26299;-39
2022/03/10 05:04:58;;;;;;;0.65;0.65;;;;;;;;;;1865796;77;26358;-43
2022/03/10 05:07:25;;;;;;;0.55;0.40;;;;;;;;;;1866125;77;26376;-39
2022/03/10 05:09:52;;;;;;;0.30;0.30;;;;;;;;;;1851788;77;26306;-42
2022/03/10 05:12:20;;;;;;;0.30;0.30;;;;;;;;;;1847971;77;26747;-41
2022/03/10 05:14:47;;;;;;;2.00;0.40;;;;;;;;;;1842453;77;26282;-41
2022/03/10 05:17:15;;;;;;;0.53;0.37;;;;;;;;;;1850256;77;26266;-39
2022/03/10 05:19:42;;;;;;;0.75;0.40;;;;;;;;;;1864714;77;26555;-41
2022/03/10 05:22:09;;;;;;;0.40;0.40;;;;;;;;;;1865325;76;26618;-44
2022/03/10 05:24:37;;;;;;;0.40;0.25;;;;;;;;;;1865513;76;26222;-41
2022/03/10 05:27:04;;;;;;;0.40;0.40;;;;;;;;;;1865816;77;26220;-39
2022/03/10 05:29:31;;;;;;;0.85;0.40;;;;;;;;;;1856492;77;26321;-42
2022/03/10 05:31:58;;;;;;;0.42;0.42;;;;;;;;;;1835210;77;26302;-41
2022/03/10 05:34:26;;;;;;;2.15;0.60;;;;;;;;;;1834895;77;26773;-40
2022/03/10 05:36:53;;;;;;;0.62;0.57;;;;;;;;;;1849192;77;26314;-39
2022/03/10 05:39:20;;;;;;;0.50;0.50;;;;;;;;;;1842186;77;26268;-42
2022/03/10 05:41:47;;;;;;;2.47;0.40;;;;;;;;;;1841815;77;26353;-39
2022/03/10 05:44:15;;;;;;;2.05;0.40;;;;;;;;;;1837087;77;26268;-40
2022/03/10 05:46:42;;;;;;;3.35;0.65;;;;;;;;;;1830173;77;26446;-39
2022/03/10 05:49:09;;;;;;;0.50;0.35;;;;;;;;;;1839630;76;26303;-41
2022/03/10 05:51:37;;;;;;;1.82;0.53;;;;;;;;;;1837554;77;26247;-43
2022/03/10 05:54:04;;;;;;;0.40;0.40;;;;;;;;;;1833405;77;26220;-42
2022/03/10 05:56:31;;;;;;;2.00;0.65;;;;;;;;;;1843477;76;26245;-39
2022/03/10 05:58:59;;;;;;;0.72;0.60;;;;;;;;;;1822128;77;26326;-38
2022/03/10 06:01:26;;;;;;;2.20;0.60;;;;;;;;;;1828933;77;26902;-38
2022/03/10 06:03:53;;;;;;;3.02;0.55;;;;;;;;;;1833203;77;26313;-38
2022/03/10 06:06:21;;;;;;;4.90;1.00;;;;;;;;;;1821316;77;26341;-40
2022/03/10 06:08:48;;;;;;;0.42;0.40;;;;;;;;;;1805044;77;26238;-38
2022/03/10 06:11:15;;;;;;;2.87;0.70;;;;;;;;;;1865815;77;26213;-37
2022/03/10 06:13:44;;;;;;;3.33;0.50;;;;;;;;;;1862886;77;27459;-37
2022/03/10 06:16:11;;;;;;;12.60;1.75;;;;;;;;;;1838245;77;26196;-38
2022/03/10 06:18:38;;;;;;;0.72;0.60;;;;;;;;;;1850794;77;26263;-38
2022/03/10 06:21:06;;;;;;;3.20;0.55;;;;;;;;;;1850965;77;26905;-38
2022/03/10 06:23:34;;;;;;;3.62;0.60;;;;;;;;;;1850802;77;26275;-38
2022/03/10 06:26:01;;;;;;;1.35;0.57;;;;;;;;;;1853709;77;26758;-37
2022/03/10 06:28:30;;;;;;;0.80;0.78;;;;;;;;;;1826146;77;26760;-40
2022/03/10 06:30:58;;;;;;;2.60;0.50;;;;;;;;;;1828752;77;27264;-38
2022/03/10 06:33:25;;;;;;;0.90;0.50;;;;;;;;;;1830636;77;26201;-38
2022/03/10 06:35:53;;;;;;;1.80;0.70;;;;;;;;;;1822857;77;26277;-40
2022/03/10 06:38:20;;;;;;;4.75;0.72;;;;;;;;;;1823478;77;26332;-40
2022/03/10 06:40:48;;;;;;;0.85;0.60;;;;;;;;;;1830269;77;26387;-43
2022/03/10 06:43:16;;;;;;;1.37;0.62;;;;;;;;;;1840129;77;26376;-41
2022/03/10 06:45:44;;;;;;;2.20;0.40;;;;;;;;;;1824213;77;26293;-41
2022/03/10 06:48:11;;;;;;;2.65;0.60;;;;;;;;;;1812721;77;26312;-39
2022/03/10 06:50:39;;;;;;;1.45;0.68;;;;;;;;;;1820857;77;26294;-39
2022/03/10 06:53:06;;;;;;;0.55;0.35;;;;;;;;;;1829195;77;26264;-43
2022/03/10 06:55:34;;;;;;;0.30;0.30;;;;;;;;;;1835624;77;26248;-41
2022/03/10 06:58:01;;;;;;;0.62;0.50;;;;;;;;;;1817749;77;26295;-45
2022/03/10 07:00:28;;;;;;;1.07;0.57;;;;;;;;;;1819075;78;26306;-40
2022/03/10 07:02:55;;;;;;;0.50;0.50;;;;;;;;;;1786469;78;26305;-44
2022/03/10 07:05:23;;;;;;;1.12;0.45;;;;;;;;;;1811449;77;26272;-42
2022/03/10 07:07:51;;;;;;;0.50;0.50;;;;;;;;;;1814920;77;26279;-46
2022/03/10 07:10:18;;;;;;;1.22;0.53;;;;;;;;;;1823290;78;26258;-68
2022/03/10 07:12:45;;;;;;;1.87;0.40;;;;;;;;;;1817362;78;26369;-45
2022/03/10 07:15:14;;;;;;;1.37;0.40;;;;;;;;;;1803259;78;26326;-46
2022/03/10 07:17:42;;;;;;;0.93;0.65;;;;;;;;;;1803347;78;26872;-41
2022/03/10 07:20:10;;;;;;;0.40;0.33;;;;;;;;;;1814994;78;26685;-41
2022/03/10 07:22:38;;;;;;;0.50;0.50;;;;;;;;;;1818716;78;26240;-40
2022/03/10 07:25:07;;;;;;;1.10;0.47;;;;;;;;;;1801993;78;26634;-43
2022/03/10 07:27:34;;;;;;;0.30;0.30;;;;;;;;;;1804240;78;26392;-40
2022/03/10 07:30:02;;;;;;;3.08;0.50;;;;;;;;;;1799772;78;26293;-40
2022/03/10 07:32:29;;;;;;;1.00;0.57;;;;;;;;;;1805843;77;26726;-40
2022/03/10 07:34:56;;;;;;;0.55;0.40;;;;;;;;;;1808811;77;26811;-42
2022/03/10 07:37:23;;;;;;;0.40;0.40;;;;;;;;;;1805933;78;26360;-40
2022/03/10 07:39:51;;;;;;;1.45;0.40;;;;;;;;;;1799560;77;26275;-40
2022/03/10 07:42:18;;;;;;;0.45;0.45;;;;;;;;;;1797151;78;26275;-41
2022/03/10 07:44:46;;;;;;;0.30;0.30;;;;;;;;;;1802468;77;26350;-45
2022/03/10 07:47:13;;;;;;;1.30;0.37;;;;;;;;;;1788989;78;26363;-41
2022/03/10 07:49:40;;;;;;;0.37;0.37;;;;;;;;;;1790399;78;26720;-41
2022/03/10 07:52:07;;;;;;;1.37;0.40;;;;;;;;;;1819213;77;26672;-42
2022/03/10 07:54:35;;;;;;;0.72;0.23;;;;;;;;;;1816435;78;26231;-44
2022/03/10 07:57:02;;;;;;;0.20;0.20;;;;;;;;;;1809193;78;26735;-44
2022/03/10 07:59:30;;;;;;;0.47;0.40;;;;;;;;;;1808317;78;26352;-47
2022/03/10 08:01:57;;;;;;;0.80;0.42;;;;;;;;;;1806920;77;26329;-43
2022/03/10 08:04:24;;;;;;;3.35;0.68;;;;;;;;;;1814045;77;26810;-44
2022/03/10 08:06:51;;;;;;;1.45;0.28;;;;;;;;;;1794352;77;26734;-40
2022/03/10 08:09:20;;;;;;;0.40;0.40;;;;;;;;;;1808301;77;26211;-40
2022/03/10 08:11:47;;;;;;;0.35;0.35;;;;;;;;;;1809345;77;26319;-41
2022/03/10 08:14:15;;;;;;;0.55;0.40;;;;;;;;;;1807973;77;26705;-40
2022/03/10 08:16:43;;;;;;;0.40;0.40;;;;;;;;;;1804049;77;26799;-41
2022/03/10 08:19:10;;;;;;;0.40;0.37;;;;;;;;;;1797982;78;26749;-41
2022/03/10 08:21:37;;;;;;;0.35;0.35;;;;;;;;;;1806282;77;26722;-39
2022/03/10 08:24:06;;;;;;;0.40;0.40;;;;;;;;;;1807688;77;26329;-40
2022/03/10 08:26:33;;;;;;;0.50;0.50;;;;;;;;;;1804804;78;26293;-43
2022/03/10 08:29:00;;;;;;;0.40;0.37;;;;;;;;;;1820530;78;26345;-41
2022/03/10 08:31:28;;;;;;;0.40;0.40;;;;;;;;;;1788738;78;29275;-45
2022/03/10 08:33:55;;;;;;;0.65;0.65;;;;;;;;;;1800348;78;26284;-40
2022/03/10 08:36:22;;;;;;;0.70;0.70;;;;;;;;;;1817500;78;26303;-41
2022/03/10 08:38:50;;;;;;;0.33;0.33;;;;;;;;;;1795111;78;26301;-40
2022/03/10 08:41:17;;;;;;;0.40;0.40;;;;;;;;;;1793900;78;26409;-42
2022/03/10 08:43:45;;;;;;;0.45;0.45;;;;;;;;;;1804458;78;26297;-42
2022/03/10 08:46:12;;;;;;;0.40;0.40;;;;;;;;;;1797142;78;26733;-40
2022/03/10 08:48:40;;;;;;;2.87;0.50;;;;;;;;;;1802849;77;26841;-40
2022/03/10 08:51:07;;;;;;;0.47;0.47;;;;;;;;;;1814707;78;26264;-42
2022/03/10 08:53:36;;;;;;;1.87;0.50;;;;;;;;;;1805031;78;26766;-40
2022/03/10 08:56:04;;;;;;;0.42;0.42;;;;;;;;;;1817131;78;26754;-41
2022/03/10 08:58:31;;;;;;;0.40;0.40;;;;;;;;;;1817396;77;26290;-40
2022/03/10 09:00:59;;;;;;;0.50;0.50;;;;;;;;;;1836438;77;26262;-43
2022/03/10 09:03:26;;;;;;;0.53;0.53;;;;;;;;;;1813478;77;26783;-42
2022/03/10 09:05:54;;;;;;;0.40;0.40;;;;;;;;;;1833464;77;26314;-41
2022/03/10 09:08:21;;;;;;;0.40;0.40;;;;;;;;;;1838456;77;25914;-42
2022/03/10 09:10:49;;;;;;;0.62;0.50;;;;;;;;;;1834503;77;26255;-42
2022/03/10 09:13:16;;;;;;;0.98;0.50;;;;;;;;;;1833712;77;26283;-43
2022/03/10 09:15:45;;;;;;;0.40;0.40;;;;;;;;;;1840445;77;26268;-45
2022/03/10 09:18:13;;;;;;;0.60;0.60;;;;;;;;;;1849820;77;26294;-40
2022/03/10 09:20:40;;;;;;;1.75;0.40;;;;;;;;;;1842579;77;26268;-40
2022/03/10 09:23:08;;;;;;;0.62;0.62;;;;;;;;;;1856337;77;26243;-40
2022/03/10 09:25:35;;;;;;;0.95;0.55;;;;;;;;;;1854806;77;26298;-41
2022/03/10 09:28:03;;;;;;;0.40;0.40;;;;;;;;;;1848543;77;26279;-43
2022/03/10 09:30:30;;;;;;;0.50;0.50;;;;;;;;;;1825120;77;26653;-42
2022/03/10 09:32:58;;;;;;;0.82;0.50;;;;;;;;;;1834675;77;26373;-39
2022/03/10 09:35:26;;;;;;;0.50;0.50;;;;;;;;;;1847646;77;26286;-43
2022/03/10 09:37:54;;;;;;;1.35;0.40;;;;;;;;;;1818462;77;26878;-40
2022/03/10 09:40:22;;;;;;;1.70;0.50;;;;;;;;;;1832004;77;26727;-40
2022/03/10 09:42:50;;;;;;;0.50;0.50;;;;;;;;;;1834366;77;26415;-38
2022/03/10 09:45:19;;;;;;;0.62;0.62;;;;;;;;;;1830483;77;26237;-46
2022/03/10 09:47:47;;;;;;;0.62;0.50;;;;;;;;;;1846186;76;26293;-40
2022/03/10 09:50:17;;;;;;;0.47;0.47;;;;;;;;;;1839652;77;26278;-39
2022/03/10 09:52:45;;;;;;;0.60;0.60;;;;;;;;;;1822898;77;26273;-39
2022/03/10 09:55:13;;;;;;;0.50;0.50;;;;;;;;;;1842888;77;26301;-44
2022/03/10 09:57:41;;;;;;;0.70;0.70;;;;;;;;;;1851425;77;26330;-38
2022/03/10 10:00:10;;;;;;;0.47;0.47;;;;;;;;;;1845724;76;26667;-38
2022/03/10 10:02:40;;;;;;;0.50;0.50;;;;;;;;;;1842440;77;26256;-40
2022/03/10 10:05:27;;;;;;;0.40;0.40;;;;;;;;;;1848348;77;26288;-39
2022/03/10 10:08:13;;;;;;;0.65;0.65;;;;;;;;;;1852466;77;26578;-44
2022/03/10 10:10:42;;;;;;;0.50;0.50;;;;;;;;;;1836564;77;26573;-44
2022/03/10 10:13:10;;;;;;;3.55;0.60;;;;;;;;;;1851932;77;22996;-45
2022/03/10 10:15:38;;;;;;;0.62;0.40;;;;;;;;;;1848122;76;26260;-40
2022/03/10 10:18:06;;;;;;;0.60;0.60;;;;;;;;;;1838828;77;26263;-41
2022/03/10 10:20:35;;;;;;;0.68;0.65;;;;;;;;;;1838410;77;26291;-40
2022/03/10 10:23:07;;;;;;;0.75;0.60;;;;;;;;;;1844173;77;26264;-45
2022/03/10 10:25:36;;;;;;;0.70;0.70;;;;;;;;;;1841430;77;26288;-41
2022/03/10 10:28:05;;;;;;;1.10;0.47;;;;;;;;;;1856846;77;26259;-41
2022/03/10 10:30:32;;;;;;;0.50;0.50;;;;;;;;;;1841426;77;26287;-43
2022/03/10 10:32:59;;;;;;;0.50;0.50;;;;;;;;;;1843958;77;26772;-41
2022/03/10 10:35:26;;;;;;;0.62;0.60;;;;;;;;;;1833123;77;26325;-40
2022/03/10 10:37:56;;;;;;;4.30;0.60;;;;;;;;;;1839922;77;25317;-43
2022/03/10 10:40:26;;;;;;;0.50;0.50;;;;;;;;;;1828102;77;26594;-42
2022/03/10 10:42:55;;;;;;;1.72;0.50;;;;;;;;;;1840357;77;26791;-43
2022/03/10 10:45:32;;;;;;;0.40;0.40;;;;;;;;;;1825275;77;26392;-45
2022/03/10 10:48:01;;;;;;;0.60;0.60;;;;;;;;;;1823189;77;26698;-40
2022/03/10 10:50:31;;;;;;;0.68;0.68;;;;;;;;;;1837047;77;26297;-41
2022/03/10 10:52:59;;;;;;;0.50;0.50;;;;;;;;;;1815468;77;26720;-41
2022/03/10 10:55:34;;;;;;;0.60;0.60;;;;;;;;;;1831234;77;26313;-41
2022/03/10 10:58:11;;;;;;;0.53;0.53;;;;;;;;;;1830183;77;26310;-43
2022/03/10 11:00:42;;;;;;;0.45;0.45;;;;;;;;;;1811652;77;26229;-41
2022/03/10 11:03:20;;;;;;;0.50;0.50;;;;;;;;;;1808356;78;26724;-42
2022/03/10 11:05:48;;;;;;;0.50;0.50;;;;;;;;;;1785558;78;26329;-45
2022/03/10 11:08:20;;;;;;;1.65;0.60;;;;;;;;;;1806541;78;26353;-44
2022/03/10 11:10:48;;;;;;;0.53;0.53;;;;;;;;;;1801957;77;26907;-41
2022/03/10 11:13:16;;;;;;;0.60;0.60;;;;;;;;;;1784637;78;26286;-47
2022/03/10 11:15:43;;;;;;;0.60;0.60;;;;;;;;;;1823433;78;27408;-47
2022/03/10 11:18:12;;;;;;;0.70;0.70;;;;;;;;;;1824529;78;26269;-42
2022/03/10 11:20:40;;;;;;;1.25;0.50;;;;;;;;;;1810500;78;26566;-46
2022/03/10 11:23:18;;;;;;;0.50;0.50;;;;;;;;;;1825266;77;26406;-42
2022/03/10 11:25:49;;;;;;;0.50;0.50;;;;;;;;;;1804892;78;26816;-46
2022/03/10 11:28:24;;;;;;;0.60;0.60;;;;;;;;;;1817704;78;26291;-44
2022/03/10 11:30:53;;;;;;;0.93;0.70;;;;;;;;;;1814952;78;26340;-43
2022/03/10 11:33:21;;;;;;;0.50;0.50;;;;;;;;;;1821773;78;26319;-43
2022/03/10 11:35:50;;;;;;;0.75;0.62;;;;;;;;;;1818092;78;26269;-42
2022/03/10 11:38:18;;;;;;;0.50;0.50;;;;;;;;;;1810465;78;26279;-45
2022/03/10 11:40:47;;;;;;;0.60;0.60;;;;;;;;;;1819631;78;26389;-46
2022/03/10 11:43:20;;;;;;;0.60;0.60;;;;;;;;;;1815440;78;26255;-44
2022/03/10 11:45:47;;;;;;;0.50;0.50;;;;;;;;;;1805323;78;26343;-43
2022/03/10 11:48:25;;;;;;;0.60;0.60;;;;;;;;;;1820021;78;26693;-40
2022/03/10 11:50:53;;;;;;;2.92;0.80;;;;;;;;;;1816826;77;26268;-39
2022/03/10 11:53:20;;;;;;;1.10;0.80;;;;;;;;;;1812459;77;26287;-40
2022/03/10 11:55:51;;;;;;;0.70;0.70;;;;;;;;;;1810306;78;26404;-43
2022/03/10 11:58:19;;;;;;;0.80;0.80;;;;;;;;;;1826667;78;26260;-43
2022/03/10 12:00:49;;;;;;;1.47;0.68;;;;;;;;;;1804370;78;26326;-43
2022/03/10 12:03:27;;;;;;;1.92;0.88;;;;;;;;;;1804197;78;26267;-40
2022/03/10 12:05:56;;;;;;;1.20;0.90;;;;;;;;;;1814075;78;26302;-39
2022/03/10 12:08:25;;;;;;;2.80;0.80;;;;;;;;;;1815323;78;26747;-42
2022/03/10 12:10:53;;;;;;;1.47;0.88;;;;;;;;;;1804047;78;27438;-42
2022/03/10 12:13:22;;;;;;;0.70;0.70;;;;;;;;;;1815373;78;26354;-42
2022/03/10 12:15:50;;;;;;;0.78;0.78;;;;;;;;;;1820056;78;26578;-42
2022/03/10 12:18:19;;;;;;;0.70;0.70;;;;;;;;;;1816419;78;26215;-40
2022/03/10 12:20:47;;;;;;;0.60;0.60;;;;;;;;;;1808001;78;26282;-43
2022/03/10 12:23:16;;;;;;;0.70;0.70;;;;;;;;;;1788824;77;26337;-41
2022/03/10 12:25:44;;;;;;;0.80;0.80;;;;;;;;;;1806097;78;26354;-41
2022/03/10 12:28:13;;;;;;;0.75;0.70;;;;;;;;;;1826476;78;26268;-42
2022/03/10 12:30:42;;;;;;;1.57;0.88;;;;;;;;;;1812262;78;26876;-46
2022/03/10 12:33:09;;;;;;;1.02;0.80;;;;;;;;;;1813133;78;26323;-42
2022/03/10 12:35:38;;;;;;;0.88;0.88;;;;;;;;;;1809598;78;26345;-44
2022/03/10 12:38:06;;;;;;;0.80;0.80;;;;;;;;;;1812821;77;26326;-42
2022/03/10 12:40:35;;;;;;;0.70;0.70;;;;;;;;;;1798109;77;26473;-41
2022/03/10 12:43:04;;;;;;;1.02;0.70;;;;;;;;;;1817810;78;26578;-43
2022/03/10 12:45:31;;;;;;;0.60;0.60;;;;;;;;;;1824513;78;26297;-42
2022/03/10 12:48:03;;;;;;;0.90;0.90;;;;;;;;;;1812277;78;25970;-47
2022/03/10 12:50:33;;;;;;;0.93;0.75;;;;;;;;;;1810801;78;27370;-42
2022/03/10 12:53:02;;;;;;;0.70;0.70;;;;;;;;;;1825452;78;26519;-41
2022/03/10 12:55:29;;;;;;;0.80;0.80;;;;;;;;;;1806557;78;28283;-43
2022/03/10 12:57:57;;;;;;;1.02;0.60;;;;;;;;;;1827424;78;26256;-40
2022/03/10 13:00:25;;;;;;;0.78;0.78;;;;;;;;;;1823646;77;26298;-42
2022/03/10 13:02:57;;;;;;;1.62;0.70;;;;;;;;;;1848197;77;26613;-40
2022/03/10 13:05:26;;;;;;;0.60;0.60;;;;;;;;;;1837448;77;26258;-39
2022/03/10 13:07:54;;;;;;;0.60;0.60;;;;;;;;;;1837550;77;26299;-40
2022/03/10 13:10:21;;;;;;;0.60;0.60;;;;;;;;;;1861194;77;26259;-41
2022/03/10 13:12:49;;;;;;;0.80;0.78;;;;;;;;;;1852276;77;26255;-38
2022/03/10 13:15:24;;;;;;;0.65;0.50;;;;;;;;;;1842988;77;26247;-38
2022/03/10 13:17:52;;;;;;;5.25;0.70;;;;;;;;;;1834342;77;26286;-41
2022/03/10 13:20:20;;;;;;;1.10;0.70;;;;;;;;;;1857036;77;26266;-39
2022/03/10 13:22:49;;;;;;;3.10;0.80;;;;;;;;;;1837952;77;28162;-40
2022/03/10 13:25:17;;;;;;;0.68;0.68;;;;;;;;;;1820929;76;26730;-42
2022/03/10 13:27:45;;;;;;;1.42;0.70;;;;;;;;;;1852207;77;26267;-41
2022/03/10 13:30:20;;;;;;;0.53;0.53;;;;;;;;;;1841402;77;26272;-40
2022/03/10 13:32:48;;;;;;;0.57;0.50;;;;;;;;;;1841302;77;26352;-41
2022/03/10 13:35:16;;;;;;;0.70;0.70;;;;;;;;;;1828900;77;28292;-43
2022/03/10 13:37:44;;;;;;;0.60;0.60;;;;;;;;;;1844643;77;26670;-41
2022/03/10 13:40:13;;;;;;;0.40;0.40;;;;;;;;;;1848569;77;26236;-41
2022/03/10 13:42:41;;;;;;;0.57;0.57;;;;;;;;;;1848594;77;26835;-41
2022/03/10 13:45:09;;;;;;;0.55;0.55;;;;;;;;;;1842108;77;26271;-40
2022/03/10 13:47:50;;;;;;;0.70;0.70;;;;;;;;;;1845923;77;26266;-40
2022/03/10 13:50:18;;;;;;;0.68;0.68;;;;;;;;;;1826328;77;26348;-40
2022/03/10 13:52:46;;;;;;;0.50;0.50;;;;;;;;;;1844379;77;26282;-42
2022/03/10 13:55:13;;;;;;;0.60;0.60;;;;;;;;;;1847974;77;26240;-42
2022/03/10 13:57:45;;;;;;;0.53;0.53;;;;;;;;;;1831201;77;26203;-41
2022/03/10 14:00:13;;;;;;;0.62;0.62;;;;;;;;;;1846208;77;25815;-39
2022/03/10 14:02:42;;;;;;;0.60;0.60;;;;;;;;;;1796563;78;26749;-41
2022/03/10 14:05:12;;;;;;;0.40;0.40;;;;;;;;;;1813360;78;26789;-39
2022/03/10 14:07:40;;;;;;;0.60;0.60;;;;;;;;;;1806736;77;26281;-40
2022/03/10 14:10:08;;;;;;;0.62;0.62;;;;;;;;;;1799623;78;26269;-41
2022/03/10 14:12:35;;;;;;;0.93;0.63;;;;;;;;;;1800296;78;28798;-42
2022/03/10 14:15:02;;;;;;;0.53;0.53;;;;;;;;;;1807333;78;26830;-43
2022/03/10 14:17:41;;;;;;;0.40;0.40;;;;;;;;;;1815518;78;26655;-40
2022/03/10 14:20:09;;;;;;;0.60;0.60;;;;;;;;;;1821432;78;26355;-41
2022/03/10 14:22:36;;;;;;;0.62;0.62;;;;;;;;;;1821098;77;26773;-41
2022/03/10 14:25:04;;;;;;;0.50;0.50;;;;;;;;;;1823137;77;26966;-41
2022/03/10 14:27:33;;;;;;;0.50;0.50;;;;;;;;;;1838436;77;27203;-38
2022/03/10 14:30:00;;;;;;;0.55;0.55;;;;;;;;;;1818627;78;26366;-41
2022/03/10 14:32:28;;;;;;;2.33;0.40;;;;;;;;;;1801936;78;26285;-42
2022/03/10 14:34:57;;;;;;;0.53;0.53;;;;;;;;;;1823867;78;27489;-44
2022/03/10 14:37:24;;;;;;;0.55;0.55;;;;;;;;;;1804924;77;26314;-45
2022/03/10 14:39:51;;;;;;;0.50;0.50;;;;;;;;;;1804053;78;26729;-40
2022/03/10 14:42:19;;;;;;;0.65;0.65;;;;;;;;;;1806472;78;26810;-41
2022/03/10 14:44:46;;;;;;;0.50;0.50;;;;;;;;;;1820167;78;26349;-40
2022/03/10 14:47:14;;;;;;;0.53;0.53;;;;;;;;;;1811442;78;26349;-38
2022/03/10 14:49:41;;;;;;;0.70;0.70;;;;;;;;;;1818866;77;26291;-39
2022/03/10 14:52:10;;;;;;;0.60;0.60;;;;;;;;;;1809872;78;26291;-41
2022/03/10 14:54:37;;;;;;;0.60;0.60;;;;;;;;;;1807134;77;26589;-41